PILOTS ONLINE: 182    ATC ONLINE: 14

PABI

Allen Army Airfield

Location

IATA BIG
City Delta Junction Ft Greely
Country  United States
Latitude 63° 59' 40" N
Longitude 145° 43' 19" W
Elevation 1291 ft
Type Medium Airport

Map

Weather

METAR
2014/09/22 04:20
PABI 220420Z 25008KT 10SM FEW018 BKN055 OVC080 02/M01 A2959 RMK AO2 SHRA DSNT ALQDS T00221006 $
TAF
2014/09/21 22:06
TAF PABI 2122/2304 28009KT 9999 BKN015 OVC030 620606 QNH2963INS 
      BECMG 2201/2202 28009KT 9999 BKN015 BKN030 620606 QNH2962INS 
      BECMG 2209/2210 28006KT 9999 SCT030 SCT060 QNH2968INS TX11/2200Z TN01/2215Z

Runways

01/19 9000 ft / 150 ft
07/25 4679 ft / 164 ft
10/28 6115 ft / 150 ft

Outbound flights

Callsign Flying to Pilot ATD/STD ETA Aircraft

Inbound flights

Callsign Flying from Pilot ATD ETA Aircraft